Admiralengracht — PCDE — position and weather

sailwx.info

Track history (hours):
 
Tides and Currents Weather Stations Pressure Air Temp Water Temp Dewpoint Dewpoint Depression Visibility Wind Speed Wind Dir Waves Ship Positions

Admiralengracht

Last reported at 2019-Feb-19 07:26 UTC. Time now 2019-Feb-20 17:18 UTC.
Position N 53°33' E 006°41'.

Length 130 m; beam 19 m; draft 9 m.

Type: Ship. MMSI: 244170283.

Date/timePositionNaut miles runAvg speedWind from/ knotsBaromVisibWave heightAir tempDewpointWater temp
2019-Feb-19 07:26N 53°33' E 006°41'0 0.0
2019-Feb-19 07:00N 53°33' E 006°41'  
2019-Feb-16 06:53N 53°39' E 005°51'2 3.2
2019-Feb-16 06:13N 53°38' E 005°55'1 0.1
2019-Feb-15 20:41N 53°38' E 005°54'0 0.7
2019-Feb-15 20:15N 53°38' E 005°53'15 0.8
2019-Feb-15 00:40N 53°41' E 006°18'2 1.8
2019-Feb-14 23:20N 53°40' E 006°14'3 4.3
2019-Feb-14 22:32N 53°39' E 006°09'0 4.3
2019-Feb-14 22:27N 53°39' E 006°08'1 1.1
2019-Feb-14 21:58N 53°39' E 006°07'5 6.8
2019-Feb-14 21:16N 53°40' E 005°60'0 0.9
2019-Feb-14 20:48N 53°40' E 006°00'3 0.7
2019-Feb-14 17:04N 53°43' E 006°01'0 0.0
2019-Feb-14 16:48N 53°43' E 006°01'0 0.2
2019-Feb-14 16:20N 53°43' E 006°01'0 0.1
2019-Feb-14 16:00N 53°43' E 006°01'0 0.7
2019-Feb-14 15:28N 53°43' E 006°01'0 0.9
2019-Feb-14 14:56N 53°42' E 006°02'0 0.8
2019-Feb-14 14:30N 53°42' E 006°02'0 0.1
2019-Feb-14 14:00N 53°42' E 006°02'1 1.2
2019-Feb-14 13:29N 53°42' E 006°01'1 1.5
2019-Feb-14 12:57N 53°42' E 006°00'4 3.1
2019-Feb-14 11:46N 53°41' E 005°54'8 0.8
2019-Feb-14 02:35N 53°39' E 006°07'12 0.4
2019-Feb-12 19:52N 53°36' E 005°48'35 4.6
2019-Feb-12 12:09N 53°20' E 004°55'2 7.5
2019-Feb-12 11:54N 53°19' E 004°58'3 8.4
2019-Feb-12 11:30N 53°19' E 005°04'4 7.9
2019-Feb-12 11:00N 53°18' E 005°10'4 8.4
2019-Feb-12 10:30N 53°14' E 005°11'4 8.3
2019-Feb-12 10:00N 53°13' E 005°18'4 7.3
2019-Feb-12 09:30N 53°11' E 005°23'2 4.0
2019-Feb-12 09:00N 53°11' E 005°26'0 0.1
2019-Feb-12 08:28N 53°11' E 005°26'0 0.0
2019-Feb-12 07:58N 53°11' E 005°26'0 0.0
2019-Feb-12 07:29N 53°11' E 005°26'0 0.0
2019-Feb-12 06:59N 53°11' E 005°26'0 0.0
2019-Feb-12 06:29N 53°11' E 005°26'0 0.0
2019-Feb-12 06:00N 53°11' E 005°26'0 0.0
2019-Feb-12 05:30N 53°11' E 005°26'0 0.0
2019-Feb-12 05:00N 53°11' E 005°26'0 0.0
2019-Feb-12 04:28N 53°11' E 005°26'0 0.0
2019-Feb-12 03:58N 53°11' E 005°26'0 0.0
2019-Feb-12 03:28N 53°11' E 005°26'0 0.0
2019-Feb-12 02:59N 53°11' E 005°26'0 0.0
2019-Feb-12 02:29N 53°11' E 005°26'0 0.0
2019-Feb-12 01:59N 53°11' E 005°26'0 0.0
2019-Feb-12 01:30N 53°11' E 005°26'0 0.0
2019-Feb-12 01:00N 53°11' E 005°26'0 0.0
2019-Feb-12 00:30N 53°11' E 005°26'0 0.0
2019-Feb-11 23:58N 53°11' E 005°26'0 0.0
2019-Feb-11 23:28N 53°11' E 005°26'0 0.0
2019-Feb-11 22:58N 53°11' E 005°26'0 0.0
2019-Feb-11 22:29N 53°11' E 005°26'0 0.0
2019-Feb-11 21:59N 53°11' E 005°26'0 0.0
2019-Feb-11 21:29N 53°11' E 005°26'0 0.0
2019-Feb-11 21:00N 53°11' E 005°26'0 0.0
2019-Feb-11 20:30N 53°11' E 005°26'0 0.0
2019-Feb-11 20:00N 53°11' E 005°26'0 0.0
2019-Feb-11 19:28N 53°11' E 005°26'0 0.0
2019-Feb-11 18:58N 53°11' E 005°26'0 0.0
2019-Feb-11 18:28N 53°11' E 005°26'0 0.0
2019-Feb-11 17:59N 53°11' E 005°26'0 0.0
2019-Feb-11 17:29N 53°11' E 005°26'0 0.0
2019-Feb-11 16:59N 53°11' E 005°26'0 0.0
2019-Feb-11 16:30N 53°11' E 005°26'0 0.0
2019-Feb-11 16:00N 53°11' E 005°26'0 0.0
2019-Feb-11 15:30N 53°11' E 005°26'0 0.0
2019-Feb-11 14:58N 53°11' E 005°26'0 0.0
2019-Feb-11 14:28N 53°11' E 005°26'0 0.0
2019-Feb-11 13:58N 53°11' E 005°26'0 0.0
2019-Feb-11 13:29N 53°11' E 005°26'0 0.0
2019-Feb-11 12:59N 53°11' E 005°26'0 0.0
2019-Feb-11 12:29N 53°11' E 005°26'0 0.0
2019-Feb-11 12:00N 53°11' E 005°26'0 0.0
2019-Feb-11 11:30N 53°11' E 005°26'0 0.0
2019-Feb-11 11:00N 53°11' E 005°26'0 0.0
2019-Feb-11 10:28N 53°11' E 005°26'0 0.0
2019-Feb-11 09:58N 53°11' E 005°26'0 0.0
2019-Feb-11 09:28N 53°11' E 005°26'0 0.0
2019-Feb-11 08:59N 53°11' E 005°26'0 0.0
2019-Feb-11 08:29N 53°11' E 005°26'0 0.0
2019-Feb-11 07:59N 53°11' E 005°26'0 0.0
2019-Feb-11 07:30N 53°11' E 005°26'0 0.0
2019-Feb-11 07:00N 53°11' E 005°26'0 0.0
2019-Feb-11 06:30N 53°11' E 005°26'0 0.0
2019-Feb-11 05:58N 53°11' E 005°26'0 0.0
2019-Feb-11 05:28N 53°11' E 005°26'0 0.0
2019-Feb-11 05:01N 53°11' E 005°26'0 0.0
2019-Feb-11 04:31N 53°11' E 005°26'1 1.1
2019-Feb-11 04:01N 53°11' E 005°25'3 6.7
2019-Feb-11 03:31N 53°11' E 005°20'4 8.0
2019-Feb-11 03:00N 53°14' E 005°14'3 7.1
2019-Feb-11 02:31N 53°16' E 005°10'4 6.7
2019-Feb-11 01:56N 53°20' E 005°08'6 3.1
2019-Feb-10 23:55N 53°25' E 005°03'7 0.3
2019-Feb-10 04:10N 53°19' E 005°02'212.0
2019-Feb-10 04:00N 53°19' E 005°05'5 9.3
2019-Feb-10 03:30N 53°16' E 005°10'510.9
2019-Feb-10 03:00N 53°13' E 005°18'5 9.6
2019-Feb-10 02:31N 53°11' E 005°24'1 2.9
2019-Feb-10 02:00N 53°11' E 005°26'0 0.0
2019-Feb-10 01:31N 53°11' E 005°26'0 0.0
2019-Feb-10 01:00N 53°11' E 005°26'0 0.0
2019-Feb-10 00:30N 53°11' E 005°26'0 0.0
2019-Feb-10 00:00N 53°11' E 005°26'0 0.0
2019-Feb-09 23:28N 53°11' E 005°26'0 0.0
2019-Feb-09 22:58N 53°11' E 005°26'0 0.0
2019-Feb-09 22:28N 53°11' E 005°26'0 0.0
2019-Feb-09 21:59N 53°11' E 005°26'0 0.0
2019-Feb-09 21:29N 53°11' E 005°26'0 0.0
2019-Feb-09 20:59N 53°11' E 005°26'0 0.0
2019-Feb-09 20:30N 53°11' E 005°26'0 0.0
2019-Feb-09 20:00N 53°11' E 005°26'0 0.0
2019-Feb-09 19:30N 53°11' E 005°26'0 0.0
2019-Feb-09 19:01N 53°11' E 005°26'0 0.0
2019-Feb-09 18:28N 53°11' E 005°26'0 0.0
2019-Feb-09 17:58N 53°11' E 005°26'0 0.0
2019-Feb-09 17:29N 53°11' E 005°26'0 0.0
2019-Feb-09 16:59N 53°11' E 005°26'0 0.0
2019-Feb-09 16:29N 53°11' E 005°26'0 0.0
2019-Feb-09 15:59N 53°11' E 005°26'0 0.0
2019-Feb-09 15:27N 53°11' E 005°26'0 0.0
2019-Feb-09 15:00N 53°11' E 005°26'0 0.0
2019-Feb-09 14:27N 53°11' E 005°26'0 0.0
2019-Feb-09 13:58N 53°11' E 005°26'0 0.0
2019-Feb-09 13:28N 53°11' E 005°26'0 0.0
2019-Feb-09 12:58N 53°11' E 005°26'0 0.0
2019-Feb-09 12:29N 53°11' E 005°26'0 0.0
2019-Feb-09 11:59N 53°11' E 005°26'0 0.0
2019-Feb-09 11:29N 53°11' E 005°26'0 0.0
2019-Feb-09 11:00N 53°11' E 005°26'0 0.0
2019-Feb-09 10:30N 53°11' E 005°26'0 0.0
2019-Feb-09 10:00N 53°11' E 005°26'0 0.0
2019-Feb-09 09:28N 53°11' E 005°26'0 0.0
2019-Feb-09 08:58N 53°11' E 005°26'0 0.0
2019-Feb-09 08:28N 53°11' E 005°26'0 0.0
2019-Feb-09 07:59N 53°11' E 005°26'0 0.0
2019-Feb-09 07:29N 53°11' E 005°26'  
Track history (hours):
 
Tides and Currents Weather Stations Pressure Air Temp Water Temp Dewpoint Dewpoint Depression Visibility Wind Speed Wind Dir Waves Ship Positions

Admiralengracht

Last reported at 2019-Feb-19 07:26 UTC. Time now 2019-Feb-20 17:18 UTC.
Position N 53°33' E 006°41'.

Length 130 m; beam 19 m; draft 9 m.

Type: Ship. MMSI: 244170283.

Date/timePositionNaut miles runAvg speedWind from/ knotsBaromVisibWave heightAir tempDewpointWater temp
2019-Feb-19 07:26N 53°33' E 006°41'0 0.0
2019-Feb-19 07:00N 53°33' E 006°41'  
2019-Feb-16 06:53N 53°39' E 005°51'2 3.2
2019-Feb-16 06:13N 53°38' E 005°55'1 0.1
2019-Feb-15 20:41N 53°38' E 005°54'0 0.7
2019-Feb-15 20:15N 53°38' E 005°53'15 0.8
2019-Feb-15 00:40N 53°41' E 006°18'2 1.8
2019-Feb-14 23:20N 53°40' E 006°14'3 4.3
2019-Feb-14 22:32N 53°39' E 006°09'0 4.3
2019-Feb-14 22:27N 53°39' E 006°08'1 1.1
2019-Feb-14 21:58N 53°39' E 006°07'5 6.8
2019-Feb-14 21:16N 53°40' E 005°60'0 0.9
2019-Feb-14 20:48N 53°40' E 006°00'3 0.7
2019-Feb-14 17:04N 53°43' E 006°01'0 0.0
2019-Feb-14 16:48N 53°43' E 006°01'0 0.2
2019-Feb-14 16:20N 53°43' E 006°01'0 0.1
2019-Feb-14 16:00N 53°43' E 006°01'0 0.7
2019-Feb-14 15:28N 53°43' E 006°01'0 0.9
2019-Feb-14 14:56N 53°42' E 006°02'0 0.8
2019-Feb-14 14:30N 53°42' E 006°02'0 0.1
2019-Feb-14 14:00N 53°42' E 006°02'1 1.2
2019-Feb-14 13:29N 53°42' E 006°01'1 1.5
2019-Feb-14 12:57N 53°42' E 006°00'4 3.1
2019-Feb-14 11:46N 53°41' E 005°54'8 0.8
2019-Feb-14 02:35N 53°39' E 006°07'12 0.4
2019-Feb-12 19:52N 53°36' E 005°48'35 4.6
2019-Feb-12 12:09N 53°20' E 004°55'2 7.5
2019-Feb-12 11:54N 53°19' E 004°58'3 8.4
2019-Feb-12 11:30N 53°19' E 005°04'4 7.9
2019-Feb-12 11:00N 53°18' E 005°10'4 8.4
2019-Feb-12 10:30N 53°14' E 005°11'4 8.3
2019-Feb-12 10:00N 53°13' E 005°18'4 7.3
2019-Feb-12 09:30N 53°11' E 005°23'2 4.0
2019-Feb-12 09:00N 53°11' E 005°26'0 0.1
2019-Feb-12 08:28N 53°11' E 005°26'0 0.0
2019-Feb-12 07:58N 53°11' E 005°26'0 0.0
2019-Feb-12 07:29N 53°11' E 005°26'0 0.0
2019-Feb-12 06:59N 53°11' E 005°26'0 0.0
2019-Feb-12 06:29N 53°11' E 005°26'0 0.0
2019-Feb-12 06:00N 53°11' E 005°26'0 0.0
2019-Feb-12 05:30N 53°11' E 005°26'0 0.0
2019-Feb-12 05:00N 53°11' E 005°26'0 0.0
2019-Feb-12 04:28N 53°11' E 005°26'0 0.0
2019-Feb-12 03:58N 53°11' E 005°26'0 0.0
2019-Feb-12 03:28N 53°11' E 005°26'0 0.0
2019-Feb-12 02:59N 53°11' E 005°26'0 0.0
2019-Feb-12 02:29N 53°11' E 005°26'0 0.0
2019-Feb-12 01:59N 53°11' E 005°26'0 0.0
2019-Feb-12 01:30N 53°11' E 005°26'0 0.0
2019-Feb-12 01:00N 53°11' E 005°26'0 0.0
2019-Feb-12 00:30N 53°11' E 005°26'0 0.0
2019-Feb-11 23:58N 53°11' E 005°26'0 0.0
2019-Feb-11 23:28N 53°11' E 005°26'0 0.0
2019-Feb-11 22:58N 53°11' E 005°26'0 0.0
2019-Feb-11 22:29N 53°11' E 005°26'0 0.0
2019-Feb-11 21:59N 53°11' E 005°26'0 0.0
2019-Feb-11 21:29N 53°11' E 005°26'0 0.0
2019-Feb-11 21:00N 53°11' E 005°26'0 0.0
2019-Feb-11 20:30N 53°11' E 005°26'0 0.0
2019-Feb-11 20:00N 53°11' E 005°26'0 0.0
2019-Feb-11 19:28N 53°11' E 005°26'0 0.0
2019-Feb-11 18:58N 53°11' E 005°26'0 0.0
2019-Feb-11 18:28N 53°11' E 005°26'0 0.0
2019-Feb-11 17:59N 53°11' E 005°26'0 0.0
2019-Feb-11 17:29N 53°11' E 005°26'0 0.0
2019-Feb-11 16:59N 53°11' E 005°26'0 0.0
2019-Feb-11 16:30N 53°11' E 005°26'0 0.0
2019-Feb-11 16:00N 53°11' E 005°26'0 0.0
2019-Feb-11 15:30N 53°11' E 005°26'0 0.0
2019-Feb-11 14:58N 53°11' E 005°26'0 0.0
2019-Feb-11 14:28N 53°11' E 005°26'0 0.0
2019-Feb-11 13:58N 53°11' E 005°26'0 0.0
2019-Feb-11 13:29N 53°11' E 005°26'0 0.0
2019-Feb-11 12:59N 53°11' E 005°26'0 0.0
2019-Feb-11 12:29N 53°11' E 005°26'0 0.0
2019-Feb-11 12:00N 53°11' E 005°26'0 0.0
2019-Feb-11 11:30N 53°11' E 005°26'0 0.0
2019-Feb-11 11:00N 53°11' E 005°26'0 0.0
2019-Feb-11 10:28N 53°11' E 005°26'0 0.0
2019-Feb-11 09:58N 53°11' E 005°26'0 0.0
2019-Feb-11 09:28N 53°11' E 005°26'0 0.0
2019-Feb-11 08:59N 53°11' E 005°26'0 0.0
2019-Feb-11 08:29N 53°11' E 005°26'0 0.0
2019-Feb-11 07:59N 53°11' E 005°26'0 0.0
2019-Feb-11 07:30N 53°11' E 005°26'0 0.0
2019-Feb-11 07:00N 53°11' E 005°26'0 0.0
2019-Feb-11 06:30N 53°11' E 005°26'0 0.0
2019-Feb-11 05:58N 53°11' E 005°26'0 0.0
2019-Feb-11 05:28N 53°11' E 005°26'0 0.0
2019-Feb-11 05:01N 53°11' E 005°26'0 0.0
2019-Feb-11 04:31N 53°11' E 005°26'1 1.1
2019-Feb-11 04:01N 53°11' E 005°25'3 6.7
2019-Feb-11 03:31N 53°11' E 005°20'4 8.0
2019-Feb-11 03:00N 53°14' E 005°14'3 7.1
2019-Feb-11 02:31N 53°16' E 005°10'4 6.7
2019-Feb-11 01:56N 53°20' E 005°08'6 3.1
2019-Feb-10 23:55N 53°25' E 005°03'7 0.3
2019-Feb-10 04:10N 53°19' E 005°02'212.0
2019-Feb-10 04:00N 53°19' E 005°05'5 9.3
2019-Feb-10 03:30N 53°16' E 005°10'510.9
2019-Feb-10 03:00N 53°13' E 005°18'5 9.6
2019-Feb-10 02:31N 53°11' E 005°24'1 2.9
2019-Feb-10 02:00N 53°11' E 005°26'0 0.0
2019-Feb-10 01:31N 53°11' E 005°26'0 0.0
2019-Feb-10 01:00N 53°11' E 005°26'0 0.0
2019-Feb-10 00:30N 53°11' E 005°26'0 0.0
2019-Feb-10 00:00N 53°11' E 005°26'0 0.0
2019-Feb-09 23:28N 53°11' E 005°26'0 0.0
2019-Feb-09 22:58N 53°11' E 005°26'0 0.0
2019-Feb-09 22:28N 53°11' E 005°26'0 0.0
2019-Feb-09 21:59N 53°11' E 005°26'0 0.0
2019-Feb-09 21:29N 53°11' E 005°26'0 0.0
2019-Feb-09 20:59N 53°11' E 005°26'0 0.0
2019-Feb-09 20:30N 53°11' E 005°26'0 0.0
2019-Feb-09 20:00N 53°11' E 005°26'0 0.0
2019-Feb-09 19:30N 53°11' E 005°26'0 0.0
2019-Feb-09 19:01N 53°11' E 005°26'0 0.0
2019-Feb-09 18:28N 53°11' E 005°26'0 0.0
2019-Feb-09 17:58N 53°11' E 005°26'0 0.0
2019-Feb-09 17:29N 53°11' E 005°26'0 0.0
2019-Feb-09 16:59N 53°11' E 005°26'0 0.0
2019-Feb-09 16:29N 53°11' E 005°26'0 0.0
2019-Feb-09 15:59N 53°11' E 005°26'0 0.0
2019-Feb-09 15:27N 53°11' E 005°26'0 0.0
2019-Feb-09 15:00N 53°11' E 005°26'0 0.0
2019-Feb-09 14:27N 53°11' E 005°26'0 0.0
2019-Feb-09 13:58N 53°11' E 005°26'0 0.0
2019-Feb-09 13:28N 53°11' E 005°26'0 0.0
2019-Feb-09 12:58N 53°11' E 005°26'0 0.0
2019-Feb-09 12:29N 53°11' E 005°26'0 0.0
2019-Feb-09 11:59N 53°11' E 005°26'0 0.0
2019-Feb-09 11:29N 53°11' E 005°26'0 0.0
2019-Feb-09 11:00N 53°11' E 005°26'0 0.0
2019-Feb-09 10:30N 53°11' E 005°26'0 0.0
2019-Feb-09 10:00N 53°11' E 005°26'0 0.0
2019-Feb-09 09:28N 53°11' E 005°26'0 0.0
2019-Feb-09 08:58N 53°11' E 005°26'0 0.0
2019-Feb-09 08:28N 53°11' E 005°26'0 0.0
2019-Feb-09 07:59N 53°11' E 005°26'0 0.0
2019-Feb-09 07:29N 53°11' E 005°26'  

Dump ship's entire track history